Terminal Aerodrome Forecast
Issued by NWS Sioux Falls, SD

Home | Current Version | Previous Version | Graphics & Text | Print | Product List | Glossary On
Versions: 1 2 3 4 5 6 7 8 9 10 11 12 13 14
000
FTUS43 KFSD 141617 AAA
TAFSUX
TAF AMD
KSUX 141617Z 1416/1512 VRB04KT P6SM OVC040
     FM141800 33011KT P6SM OVC040
     FM142300 29007KT P6SM OVC040
     FM150500 29008KT P6SM BKN045=

USA.gov is the U.S. government's official web portal to all federal, state and local government web resources and services.